EDXW/GWT METAR and TAF weather

Enter ICAO airport designator
Station Type Date Time Source
EDXW METAR 2022/12/10 02:50 UTC NOAA

EDXW 100250Z AUTO 15011KT 6000 // OVC019/// 01/M00 Q1007


Station Type Date Time Source
EDXW Decoded METAR 2022/12/10 02:50 UTC NOAA

Westerland / Sylt, Germany (EDXW) 54-55N 008-21E 20M
Dec 09, 2022 - 09:50 PM EST / 2022.12.10 0250 UTC
Wind: from the SSE (150 degrees) at 13 MPH (11 KT):0
Visibility: 3 mile(s):0
Sky conditions: overcast
Temperature: 33 F (1 C)
Windchill: 23 F (-5 C):1
Dew Point: 32 F (0 C)
Relative Humidity: 93%
Pressure (altimeter): 29.74 in. Hg (1007 hPa)
ob: EDXW 100250Z AUTO 15011KT 6000 // OVC019/// 01/M00 Q1007
cycle: 3

Station Type Date Time Source
EDXW TAF 2009/07/07 14:00 UTC NOAA

TAF EDXW 071400Z 0715/0719 22015G25KT 9999 SCT020

Example: see airport list